Questo sito fa uso di cookie per migliorare l’esperienza di navigazione degli utenti e per raccogliere informazioni sull’utilizzo del sito stesso. Proseguendo nella navigazione si accetta l’uso dei cookie; in caso contrario è possibile abbandonare il sito.

[source: ADDS]
METAR
LIPA 180855Z 10005KT 9999 FEW030 SCT040 24/18 Q1016 RMK BKN VIS MIN 9999 WIND THR05 /////KT WIND THR23 /////KT A3002 BLU =
TAF LIPA 180500Z 1806/1815 02005KT 8000 SCT020 SCT060 PROB30 TEMPO 1806/1809 3000 SHRA LIPB 180950Z VRB01KT CAVOK 25/11 Q1016 =
TAF LIPB 180500Z 1806/1906 VRB05KT 9999 FEW060 LIPC 180955Z 34006KT CAVOK 26/18 Q1015 =
TAF LIPC 180800Z 1809/1818 35007KT 9999 SCT050 BECMG 1812/1814 05012KT PROB30 TEMPO 1812/1815 5000 SHRA BKN030 TEMPO 1816/1818 05015G25KT LIPE 180950Z 29005KT 250V340 8000 SCT070 24/17 Q1015 =
TAF LIPE 180500Z 1806/1906 VRB05KT 9999 SCT040 BECMG 1812/1814 08012KT TEMPO 1812/1818 TSRA LIPF 180955Z /////KT 9999 TS FEW020CB SCT025 27/20 Q1015 =
LIPH 180950Z 09007KT 060V120 9999 FEW030 SCT050 25/20 Q1016 =
TAF LIPH 180500Z 1806/1906 VRB05KT 9999 SCT040 TEMPO 1807/1815 TSRA LIPI 180855Z 08009KT 9999 SCT035 SCT050 24/18 Q1016 RMK BKN VIS MIN 9999 WIND THR06 12010KT WIND THR24 10009KT BLU =
TAF LIPI 180500Z 1806/1815 03005KT 9999 SCT030 BKN060 TEMPO 1806/1808 3000 TSRA FEW020CB BKN020 LIPK 180950Z 01005KT CAVOK 26/17 Q1015 =
LIPL 180855Z 29002KT 3200 BR FEW010 SCT040 24/20 Q1014 RMK BKN VIS MIN 3200 WIND THR31 22003KT WIND THR13 22003KT YLO =
TAF COR LIPL 180501Z 1806/1815 VRB03KT 3000 BR SCT040 BECMG 1807/1809 5000 BECMG 1809/1811 10013KT 6000 NSW SCT030 SCT070 TEMPO 1811/1815 09015G25KT 4500 SHRA FEW025CB BKN050 LIPU 180600Z 02005KT 340V050 3000 BR NSC 21/20 Q1015 =
LIPO 180950Z 30004KT 3000 BR BKN030 24/20 Q1016 =
TAF LIPO 180500Z 1806/1906 VRB05KT 8000 SCT080 TEMPO 1806/1808 4000 BR TEMPO 1809/1821 4000 TSRA TEMPO 1813/1818 10012KT LIPQ 180950Z 08016KT 9999 BKN040 21/13 Q1017 =
TAF LIPQ 180500Z 1806/1906 09014KT 9999 SCT040 TEMPO 1807/1812 TSRA LIPR 180950Z 03007KT CAVOK 25/17 Q1015 =
TAF LIPR 180800Z 1809/1818 VRB05KT CAVOK BECMG 1810/1812 05010KT PROB40 TEMPO 1815/1818 TSRA LIPS 180855Z /////KT 9999 SCT015 SCT025 23/21 Q1015 RMK BKN VIS MIN 9999 WIND THR26 05005KT WIND THR08 07004KT BLU =
TAF LIPS 180500Z 1806/1815 06008KT 8000 FEW015 BKN030 PROB40 TEMPO 1807/1811 3000 TSRA FEW015CB BKN025 LIPU 180600Z 02005KT 340V050 3000 BR NSC 21/20 Q1015 =
LIPX 180950Z 07003KT 010V120 5000 BR SCT020 SCT040 25/19 Q1016 =
TAF LIPX 180800Z 1809/1818 VRB05KT 8000 BKN040 TEMPO 1808/1810 4000 BR TEMPO 1810/1816 4000 TSRA LIPY 180950Z 01006KT 340V040 CAVOK 27/17 Q1015 =
TAF LIPY 180500Z 1806/1906 VRB05KT CAVOK BECMG 1810/1812 07012KT LIPZ 180950Z 09009KT 9999 SCT054 24/20 Q1016 NOSIG =
TAF LIPZ 180500Z 1806/1912 08014KT 9999 SCT040 TEMPO 1806/1808 SHRA TEMPO 1808/1816 TSRA TEMPO 1808/1812 07016G26KT LIVC 180855Z 16004KT CAVOK 14/07 Q1025 RMK SKC MON CLD SCT VAL E CLD SCT ELEV VIS MIN 9999 =
LIVD 180855Z 00000KT CAVOK 15/08 Q1021 RMK SKC VIS MIN 9999 =
LIVE 180855Z 03009KT CAVOK 13/11 Q1021 RMK SKC VIS MIN 9999 =
LIVF 180855Z 06004KT CAVOK 23/14 Q1016 =
LIVM 180855Z 31004KT CAVOK 23/17 Q1015 RMK BKN SCT100 SCT180 QUK 0 QUL 0 VIS MAR 15 KM VIS MIN 9999 =
LIVO 180855Z 09005KT 9999 BKN020 14/11 Q1019 RMK BKN VIS MIN 9999 =
LIVP 180855Z 36005KT CAVOK 10/01 Q1022 =
LIVR 180855Z 12003KT CAVOK 13/03 Q1023 RMK SKC MON LIB VIS MIN 9999 =
LIVT 180855Z 04014G30KT 9999 SCT040 21/14 Q1016 RMK OVC SCT060 QUK 3 QUL 1 NE VIS MAR 20 KM VIS MIN 9999 =
LIMC 180950Z 20004KT 160V250 9999 BKN050 23/17 Q1017 NOSIG =
TAF LIMC 180500Z 1806/1912 VRB05KT 9999 SCT080 TEMPO 1814/1821 4000 TSRA LIME 180950Z VRB03KT 7000 SCT040 SCT070 24/19 Q1016 NOSIG =
TAF LIME 180500Z 1806/1906 VRB05KT 9999 SCT040 SCT080 TEMPO 1812/1821 4000 TSRA LIMF 180950Z 05005KT 030V100 CAVOK 23/18 Q1017 =
TAF LIMF 180500Z 1806/1906 VRB05KT 9999 SCT080 TEMPO 1814/1822 4000 TSRA LIMG 180950Z 31004KT 9999 BKN035 23/19 Q1016 =
LIMH 180855Z VRB03KT 9999 BKN040 05/M02 Q1029 =
LIMJ 180950Z 14006KT 9999 FEW018 BKN035 24/20 Q1016 =
TAF LIMJ 180500Z 1806/1906 04008KT 9999 SCT030 PROB40 TEMPO 1812/1821 4000 TSRA LIMK 180855Z 35002KT 9999 FEW030 18/18 Q1017 =
LIMN 180855Z 19004KT CAVOK 23/15 Q1016 RMK BKN SCT070 SCT100 VIS MIN 9999 BLU =
TAF LIMN 180500Z 1806/1815 35006KT 9999 FEW060 TEMPO 1806/1808 5000 BR LIMS 180955Z 02003KT 9999 SCT025 BKN050 24/21 Q1015 =
LIMU 180855Z 02009KT 9999 SCT020 23/19 Q1015 RMK BKN BKN060 QUK 2 QUL 1 S VIS MAR 25 KM VIS MIN 9999 =
LIMV 180855Z /////KT 9999 FEW012 21/17 Q1017 RMK FEW MON LIB CUF VAL NIL VIS MIN 9999 =
LIMY 180855Z 20002KT CAVOK 20/18 Q1018 RMK BKN BKN070 VAL FOSCHIA VIS MIN 9999 =
TAF
TAF LIPA 180500Z 1806/1815 02005KT 8000 SCT020 SCT060 PROB30 TEMPO 1806/1809 3000 SHRA =
TAF LIPB 180500Z 1806/1906 VRB05KT 9999 FEW060 =
TAF LIPC 180800Z 1809/1818 35007KT 9999 SCT050 BECMG 1812/1814 05012KT PROB30 TEMPO 1812/1815 5000 SHRA BKN030 TEMPO 1816/1818 05015G25KT =
TAF LIPE 180500Z 1806/1906 VRB05KT 9999 SCT040 BECMG 1812/1814 08012KT TEMPO 1812/1818 TSRA =
TAF LIPH 180500Z 1806/1906 VRB05KT 9999 SCT040 TEMPO 1807/1815 TSRA =
TAF LIPI 180500Z 1806/1815 03005KT 9999 SCT030 BKN060 TEMPO 1806/1808 3000 TSRA FEW020CB BKN020 =
TAF COR LIPL 180501Z 1806/1815 VRB03KT 3000 BR SCT040 BECMG 1807/1809 5000 BECMG 1809/1811 10013KT 6000 NSW SCT030 SCT070 TEMPO 1811/1815 09015G25KT 4500 SHRA FEW025CB BKN050 =
TAF LIPO 180500Z 1806/1906 VRB05KT 8000 SCT080 TEMPO 1806/1808 4000 BR TEMPO 1809/1821 4000 TSRA TEMPO 1813/1818 10012KT =
TAF LIPQ 180500Z 1806/1906 09014KT 9999 SCT040 TEMPO 1807/1812 TSRA =
TAF LIPR 180800Z 1809/1818 VRB05KT CAVOK BECMG 1810/1812 05010KT PROB40 TEMPO 1815/1818 TSRA =
TAF LIPS 180500Z 1806/1815 06008KT 8000 FEW015 BKN030 PROB40 TEMPO 1807/1811 3000 TSRA FEW015CB BKN025 =
TAF LIPX 180800Z 1809/1818 VRB05KT 8000 BKN040 TEMPO 1808/1810 4000 BR TEMPO 1810/1816 4000 TSRA =
TAF LIPY 180500Z 1806/1906 VRB05KT CAVOK BECMG 1810/1812 07012KT =
TAF LIPZ 180500Z 1806/1912 08014KT 9999 SCT040 TEMPO 1806/1808 SHRA TEMPO 1808/1816 TSRA TEMPO 1808/1812 07016G26KT =
TAF LIMC 180500Z 1806/1912 VRB05KT 9999 SCT080 TEMPO 1814/1821 4000 TSRA =
TAF LIME 180500Z 1806/1906 VRB05KT 9999 SCT040 SCT080 TEMPO 1812/1821 4000 TSRA =
TAF LIMF 180500Z 1806/1906 VRB05KT 9999 SCT080 TEMPO 1814/1822 4000 TSRA =
TAF LIMJ 180500Z 1806/1906 04008KT 9999 SCT030 PROB40 TEMPO 1812/1821 4000 TSRA =
TAF LIMN 180500Z 1806/1815 35006KT 9999 FEW060 TEMPO 1806/1808 5000 BR =
SR / SS: 04:55 / 17:18 UTC (Effemeridi Aeroporto di Padova - LIPU 2019-09-18)

Immagini e previsioni meteo non aeronautiche

 

 

Immagini dal Radar Meteorologico del sito ARPAV. Orario UTC.

 

Immagine dal sito Meteo Sat Online

 

Legenda codici ICAO del nord Italia

 

In ordine di codice   In ordine di località
LIMC
Milano / Malpensa LIMG Albenga
LIME Bergamo / Orio Al Serio LIPA Aviano
LIMF Torino / Caselle LIME Bergamo / Orio Al Serio
LIMG Albenga LIPE Bologna / Borgo Panigale
LIMH Pian Rosa LIPB Bolzano
LIMJ Genova / Sestri LIPL Brescia / Ghedi
LIMK Torino / Bric Della Croce LIPO Brescia / Montichiari
LIML Milano / Linate LIMU Capo Mele
LIMN Novara / Cameri LIPC Cervia
LIMO Monte Bisbino LIVD Dobbiaco
LIMS Piacenza LIPP Dova Area Control Center
LIMT Passo Della Cisa LIPY Falconara
LIMU Capo Mele LIPF Ferrara
LIMV Passo Dei Giovi LIPK Forli
LIMY Monte Malanotte LIVF Frontone
LIPA Aviano LIMJ Genova / Sestri
LIPB Bolzano LIML Milano / Linate
LIPC Cervia
LIMC
Milano / Malpensa
LIPD Udine / Campoformido LIMO Monte Bisbino
LIPE Bologna / Borgo Panigale LIVC Monte Cimone
LIPF Ferrara LIMY Monte Malanotte
LIPH Treviso / S. Angelo LIMN Novara / Cameri
LIPI Udine / Rivolto LIPU Padova
LIPK Forli LIVP Paganella
LIPL Brescia / Ghedi LIMV Passo Dei Giovi
LIPO Brescia / Montichiari LIMT Passo Della Cisa
LIPP Dova Area Control Center LIVR Passo Rolle
LIPQ Ronchi Dei Legionari LIMS Piacenza
LIPR Rimini LIMH Pian Rosa
LIPS Treviso / Istrana LIVM Punta Marina
LIPT Vicenza LIVE Resia Pass
LIPU Padova LIPR Rimini
LIPX Verona / Villafranca LIPQ Ronchi Dei Legionari
LIPY Falconara LIVO Tarvisio
LIPZ Venezia / Tessera LIMK Torino / Bric Della Croce
LIVC Monte Cimone LIMF Torino / Caselle
LIVD Dobbiaco LIPS Treviso / Istrana
LIVE Resia Pass LIPH Treviso / S. Angelo
LIVF Frontone LIVT
Trieste
LIVM Punta Marina LIPD Udine / Campoformido
LIVO Tarvisio LIPI Udine / Rivolto
LIVP Paganella LIPZ Venezia / Tessera
LIVR Passo Rolle LIPX Verona / Villafranca
LIVT Trieste LIPT Vicenza

 

 

 

 

 

 

 

 

 

 

 

 

 

 

 

 

 

 

 

 

 

 

 

 

 

 

 

 

 

 

 

 

 

 

 

 

 

 

 

 

 

 

 

 

 

 

 

 

 

 

 

 

 

 

 

 

 

 

 

 

L'Aeroclub di Padova si limita a riportare informazioni fornite da terze parti, e non ha quindi alcuna responsabilità sul contenuto. Per la pianificazione dei propri voli si raccomanda l'utilizzo delle fonti ufficiali.

Copyright 2011. Free joomla templates | © Aeroclub Padova - Scuola di Volo, Ditta di manutenzione, CAMO Via Sorio, 89 - 35141 Padova Tel. 049 8718599 Fax 049 8717699 info@aeroclubpadova.it